Time;durP1;ratioP1;P1;durP2;ratioP2;P2;SDS_P1;SDS_P2;PMS_P1;PMS_P2;Temp;Humidity;BMP_temperature;BMP_pressure;BME280_temperature;BME280_humidity;BME280_pressure;Samples;Min_cycle;Max_cycle;Signal;HPM_P1;HPM_P2
2020/12/13 00:01:59;;;;;;;4.35;4.15;;;;;;;;;;4350120;32;20082;-77
2020/12/13 00:04:29;;;;;;;5.30;5.00;;;;;;;;;;4352190;32;20051;-77
2020/12/13 00:06:57;;;;;;;5.70;5.40;;;;;;;;;;4355586;32;20102;-76
2020/12/13 00:09:25;;;;;;;5.97;5.57;;;;;;;;;;4350133;32;20115;-76
2020/12/13 00:11:54;;;;;;;6.65;6.35;;;;;;;;;;4350033;32;20107;-76
2020/12/13 00:14:23;;;;;;;7.20;6.80;;;;;;;;;;4354826;32;20114;-76
2020/12/13 00:16:52;;;;;;;7.37;7.07;;;;;;;;;;4349726;32;20111;-76
2020/12/13 00:19:21;;;;;;;7.60;7.20;;;;;;;;;;4352014;32;20078;-76
2020/12/13 00:21:50;;;;;;;7.57;6.60;;;;;;;;;;4351145;32;20056;-76
2020/12/13 00:24:18;;;;;;;6.57;6.32;;;;;;;;;;4346041;32;20139;-77
2020/12/13 00:26:47;;;;;;;6.85;6.30;;;;;;;;;;4347557;32;20064;-76
2020/12/13 00:29:16;;;;;;;6.95;6.37;;;;;;;;;;4335621;33;20863;-76
2020/12/13 00:31:45;;;;;;;7.25;6.75;;;;;;;;;;4351413;32;20656;-76
2020/12/13 00:34:14;;;;;;;7.78;6.18;;;;;;;;;;4341572;32;20149;-77
2020/12/13 00:36:43;;;;;;;4.43;0.60;;;;;;;;;;4348104;32;20071;-76
2020/12/13 00:39:11;;;;;;;0.40;0.40;;;;;;;;;;4351887;32;20386;-76
2020/12/13 00:41:40;;;;;;;4.03;0.60;;;;;;;;;;4348185;33;20099;-76
2020/12/13 00:44:08;;;;;;;3.45;1.12;;;;;;;;;;4347331;32;20056;-76
2020/12/13 00:46:39;;;;;;;1.52;0.50;;;;;;;;;;4351003;33;20101;-77
2020/12/13 00:49:08;;;;;;;0.68;0.55;;;;;;;;;;4352585;32;20121;-76
2020/12/13 00:51:37;;;;;;;2.12;0.70;;;;;;;;;;4348145;32;20048;-77
2020/12/13 00:54:05;;;;;;;4.03;1.00;;;;;;;;;;4348849;32;20157;-77
2020/12/13 00:56:34;;;;;;;3.20;1.12;;;;;;;;;;4354083;32;20515;-76
2020/12/13 00:59:03;;;;;;;5.00;0.93;;;;;;;;;;4352049;32;20079;-77
2020/12/13 01:01:32;;;;;;;2.90;0.82;;;;;;;;;;4345829;32;20140;-77
2020/12/13 01:04:01;;;;;;;2.58;0.68;;;;;;;;;;4348265;33;20126;-76
2020/12/13 01:06:29;;;;;;;1.30;0.43;;;;;;;;;;4352120;32;20103;-76
2020/12/13 01:08:58;;;;;;;1.25;0.70;;;;;;;;;;4349279;32;20114;-77
2020/12/13 01:11:31;;;;;;;3.83;0.80;;;;;;;;;;4346998;32;20078;-77
2020/12/13 01:14:00;;;;;;;3.72;0.62;;;;;;;;;;4347178;32;20056;-77
2020/12/13 01:16:29;;;;;;;9.23;1.20;;;;;;;;;;4347790;32;20059;-77
2020/12/13 01:18:59;;;;;;;1.85;0.80;;;;;;;;;;4343465;33;20670;-77
2020/12/13 01:21:30;;;;;;;2.35;0.70;;;;;;;;;;4342588;32;20134;-77
2020/12/13 01:23:59;;;;;;;4.25;1.62;;;;;;;;;;4345681;32;20071;-77
2020/12/13 01:26:27;;;;;;;4.15;0.90;;;;;;;;;;4352283;32;20056;-77
2020/12/13 01:28:56;;;;;;;4.43;1.30;;;;;;;;;;4344772;33;20091;-76
2020/12/13 01:31:24;;;;;;;0.98;0.50;;;;;;;;;;4347431;32;20071;-77
2020/12/13 01:33:55;;;;;;;3.03;0.80;;;;;;;;;;4351950;32;20095;-77
2020/12/13 01:36:24;;;;;;;13.75;1.00;;;;;;;;;;4351311;32;20073;-77
2020/12/13 01:38:52;;;;;;;3.75;1.00;;;;;;;;;;4349998;32;20066;-76
2020/12/13 01:41:21;;;;;;;2.72;0.80;;;;;;;;;;4343755;32;20099;-77
2020/12/13 01:43:56;;;;;;;2.70;0.82;;;;;;;;;;4348108;32;20067;-77
2020/12/13 01:46:24;;;;;;;;;;;;;;;;;;4353702;32;20345;-77
2020/12/13 01:49:01;;;;;;;7.45;1.10;;;;;;;;;;4344459;32;20006;-76
2020/12/13 01:51:44;;;;;;;8.70;0.93;;;;;;;;;;4333786;33;20090;-76
2020/12/13 01:54:13;;;;;;;1.62;0.80;;;;;;;;;;4348362;32;20063;-76
2020/12/13 01:56:52;;;;;;;7.55;1.37;;;;;;;;;;4347844;32;20127;-77
2020/12/13 01:59:22;;;;;;;3.60;2.80;;;;;;;;;;4347620;32;20102;-77
2020/12/13 02:01:54;;;;;;;2.37;0.50;;;;;;;;;;4345420;32;20550;-77
2020/12/13 02:04:23;;;;;;;3.35;0.60;;;;;;;;;;4347368;32;20056;-77
2020/12/13 02:06:54;;;;;;;7.90;0.80;;;;;;;;;;4345352;32;20457;-77
2020/12/13 02:09:23;;;;;;;3.78;1.05;;;;;;;;;;4345552;33;20103;-76
2020/12/13 02:11:54;;;;;;;2.58;0.75;;;;;;;;;;4352850;32;20070;-77
2020/12/13 02:14:22;;;;;;;4.18;0.90;;;;;;;;;;4350896;32;20600;-77
2020/12/13 02:16:52;;;;;;;6.87;1.08;;;;;;;;;;4342755;32;21681;-76
2020/12/13 02:19:21;;;;;;;4.87;1.35;;;;;;;;;;4343178;32;20044;-77
2020/12/13 02:21:50;;;;;;;5.07;4.60;;;;;;;;;;4352721;32;20069;-76
2020/12/13 02:24:19;;;;;;;7.12;6.40;;;;;;;;;;4347608;32;20052;-77
2020/12/13 02:26:48;;;;;;;6.25;5.65;;;;;;;;;;4351892;32;20111;-77
2020/12/13 02:29:17;;;;;;;8.07;5.57;;;;;;;;;;4346625;32;20374;-76
2020/12/13 02:31:46;;;;;;;5.62;5.25;;;;;;;;;;4350552;32;20059;-77
2020/12/13 02:34:15;;;;;;;8.05;7.43;;;;;;;;;;4348001;32;20047;-77
2020/12/13 02:36:43;;;;;;;7.97;6.25;;;;;;;;;;4342704;32;20099;-77
2020/12/13 02:39:11;;;;;;;10.52;6.20;;;;;;;;;;4345419;32;20273;-77
2020/12/13 02:41:40;;;;;;;6.15;5.50;;;;;;;;;;4350647;32;20056;-76
2020/12/13 02:44:08;;;;;;;6.80;5.45;;;;;;;;;;4348292;32;20074;-77
2020/12/13 02:46:37;;;;;;;6.53;5.65;;;;;;;;;;4352699;32;20064;-76
2020/12/13 02:49:06;;;;;;;5.50;5.10;;;;;;;;;;4347621;32;20564;-76
2020/12/13 02:51:34;;;;;;;5.87;5.55;;;;;;;;;;4348033;33;20056;-77
2020/12/13 02:54:02;;;;;;;6.70;6.28;;;;;;;;;;4347932;32;20233;-76
2020/12/13 02:56:33;;;;;;;6.53;6.12;;;;;;;;;;4349307;32;20064;-76
2020/12/13 02:59:02;;;;;;;6.62;6.00;;;;;;;;;;4349676;32;20094;-77
2020/12/13 03:01:30;;;;;;;9.35;6.03;;;;;;;;;;4349693;32;20122;-76
2020/12/13 03:03:59;;;;;;;6.00;5.50;;;;;;;;;;4345717;32;20925;-77
2020/12/13 03:06:27;;;;;;;6.53;6.03;;;;;;;;;;4350776;32;20333;-76
2020/12/13 03:08:56;;;;;;;7.62;5.25;;;;;;;;;;4351758;32;20658;-76
2020/12/13 03:11:24;;;;;;;6.28;5.53;;;;;;;;;;4416703;27;20097;-92
2020/12/13 03:13:53;;;;;;;6.45;5.93;;;;;;;;;;4348959;32;20079;-92
2020/12/13 03:16:21;;;;;;;5.53;5.20;;;;;;;;;;4330555;33;20086;-93
2020/12/13 03:18:58;;;;;;;8.15;5.53;;;;;;;;;;4344521;33;20134;-94
2020/12/13 03:21:31;;;;;;;5.95;5.30;;;;;;;;;;4327124;33;20068;-92
2020/12/13 03:24:04;;;;;;;5.47;5.18;;;;;;;;;;4332812;33;20123;-92
2020/12/13 03:26:33;;;;;;;8.88;5.40;;;;;;;;;;4321366;33;20850;-93
2020/12/13 03:29:06;;;;;;;6.20;4.90;;;;;;;;;;4321323;33;20045;-92
2020/12/13 03:31:39;;;;;;;5.37;5.03;;;;;;;;;;4312945;33;20137;-92
2020/12/13 03:34:09;;;;;;;7.85;5.60;;;;;;;;;;4340129;33;20134;-93
2020/12/13 03:36:53;;;;;;;5.30;5.10;;;;;;;;;;4329725;33;20154;-92
2020/12/13 03:39:24;;;;;;;8.07;6.35;;;;;;;;;;4321720;33;20084;-93
2020/12/13 03:41:53;;;;;;;7.47;5.37;;;;;;;;;;4315507;33;20060;-93
2020/12/13 03:44:27;;;;;;;11.77;11.07;;;;;;;;;;4312019;33;20070;-93
2020/12/13 03:46:56;;;;;;;9.73;8.55;;;;;;;;;;4326172;33;20117;-94
2020/12/13 03:49:29;;;;;;;6.37;5.87;;;;;;;;;;4324220;33;20114;-94
2020/12/13 03:52:04;;;;;;;7.80;7.18;;;;;;;;;;4314658;33;20110;-92
2020/12/13 03:54:32;;;;;;;6.93;6.40;;;;;;;;;;4326637;33;20165;-95
2020/12/13 03:57:03;;;;;;;7.22;6.60;;;;;;;;;;4339930;33;20067;-93
2020/12/13 03:59:34;;;;;;;7.12;6.75;;;;;;;;;;4339155;33;20106;-93
2020/12/13 04:02:08;;;;;;;4.25;0.80;;;;;;;;;;4337376;33;20110;-93
2020/12/13 04:04:40;;;;;;;6.07;0.98;;;;;;;;;;4328735;33;20094;-92
2020/12/13 04:07:10;;;;;;;4.87;0.90;;;;;;;;;;4326610;33;20055;-93
2020/12/13 04:09:41;;;;;;;3.80;2.60;;;;;;;;;;4339597;33;20078;-94
2020/12/13 04:12:12;;;;;;;7.07;5.20;;;;;;;;;;4341720;33;20133;-93
2020/12/13 04:15:00;;;;;;;9.82;5.03;;;;;;;;;;4329393;33;20110;-95
2020/12/13 04:17:28;;;;;;;4.75;4.37;;;;;;;;;;4341402;33;20537;-93
2020/12/13 04:19:56;;;;;;;4.95;4.30;;;;;;;;;;4338011;33;20124;-94
2020/12/13 04:22:25;;;;;;;5.18;4.72;;;;;;;;;;4321347;33;20064;-93
2020/12/13 04:24:57;;;;;;;7.43;4.50;;;;;;;;;;4315478;33;20078;-92
2020/12/13 04:27:26;;;;;;;4.87;4.40;;;;;;;;;;4337590;33;20074;-93
2020/12/13 04:30:15;;;;;;;4.60;4.20;;;;;;;;;;4336822;33;20381;-94
2020/12/13 04:32:44;;;;;;;4.82;4.30;;;;;;;;;;4339121;33;20143;-93
2020/12/13 04:35:20;;;;;;;4.30;4.10;;;;;;;;;;4328739;33;20051;-93
2020/12/13 04:37:53;;;;;;;5.37;4.35;;;;;;;;;;4317817;33;20079;-95
2020/12/13 04:40:24;;;;;;;5.70;4.68;;;;;;;;;;4316387;33;20060;-93
2020/12/13 04:43:18;;;;;;;4.43;4.18;;;;;;;;;;4333383;33;20051;-93
2020/12/13 04:45:47;;;;;;;4.60;3.92;;;;;;;;;;4326991;33;20079;-93
2020/12/13 04:48:20;;;;;;;6.65;4.47;;;;;;;;;;4313392;33;20078;-92
2020/12/13 04:50:49;;;;;;;8.38;4.12;;;;;;;;;;4317026;33;20064;-95
2020/12/13 04:53:30;;;;;;;7.45;4.45;;;;;;;;;;4331067;33;20463;-93
2020/12/13 04:55:59;;;;;;;4.68;4.28;;;;;;;;;;4338695;33;20063;-94
2020/12/13 04:58:33;;;;;;;5.35;4.43;;;;;;;;;;4315580;33;20083;-94
2020/12/13 05:04:07;;;;;;;5.43;4.22;;;;;;;;;;4330217;33;20073;-94
2020/12/13 05:06:59;;;;;;;4.97;4.30;;;;;;;;;;4339414;33;20068;-94
2020/12/13 05:09:34;;;;;;;4.82;4.47;;;;;;;;;;4302579;33;20174;-93
2020/12/13 05:12:06;;;;;;;7.03;4.35;;;;;;;;;;4316623;33;20053;-95
2020/12/13 05:14:35;;;;;;;5.47;5.07;;;;;;;;;;4310003;33;20367;-92
2020/12/13 05:17:08;;;;;;;4.82;4.53;;;;;;;;;;4308673;33;20064;-92
2020/12/13 05:19:39;;;;;;;8.68;5.00;;;;;;;;;;4308712;33;20056;-92
2020/12/13 05:22:12;;;;;;;7.95;4.22;;;;;;;;;;4297623;33;20096;-93
2020/12/13 05:24:43;;;;;;;4.95;4.55;;;;;;;;;;4308759;33;20104;-93
2020/12/13 05:27:23;;;;;;;5.50;5.00;;;;;;;;;;4320422;33;20557;-94
2020/12/13 05:30:01;;;;;;;6.53;4.65;;;;;;;;;;4292296;33;20076;-92
2020/12/13 05:32:31;;;;;;;4.78;4.35;;;;;;;;;;4293041;33;20065;-92
2020/12/13 05:35:07;;;;;;;4.87;4.55;;;;;;;;;;4304804;33;20136;-92
2020/12/13 05:37:56;;;;;;;3.55;3.20;;;;;;;;;;4290287;33;20147;-93
2020/12/13 05:40:25;;;;;;;3.60;3.40;;;;;;;;;;4321265;33;20048;-94
2020/12/13 05:43:26;;;;;;;4.18;3.60;;;;;;;;;;4300798;33;20056;-96
2020/12/13 05:46:16;;;;;;;5.68;3.40;;;;;;;;;;4298249;33;20112;-95
2020/12/13 05:51:46;;;;;;;5.80;5.40;;;;;;;;;;4293325;33;20091;-95
2020/12/13 05:54:51;;;;;;;5.65;5.12;;;;;;;;;;4324158;33;20064;-95
2020/12/13 05:57:19;;;;;;;8.20;6.40;;;;;;;;;;4327336;33;20061;-95
2020/12/13 05:59:48;;;;;;;5.30;5.03;;;;;;;;;;4327859;33;20064;-96
2020/12/13 06:02:17;;;;;;;6.50;5.40;;;;;;;;;;4300867;33;20075;-95
2020/12/13 06:05:12;;;;;;;5.75;5.00;;;;;;;;;;4299560;33;20115;-94
2020/12/13 06:07:50;;;;;;;6.80;4.60;;;;;;;;;;4304967;33;20100;-95
2020/12/13 06:10:25;;;;;;;8.18;4.65;;;;;;;;;;4325445;33;20111;-96
2020/12/13 06:13:01;;;;;;;5.22;4.70;;;;;;;;;;4325549;33;20116;-94
2020/12/13 06:15:35;;;;;;;5.40;4.90;;;;;;;;;;4313472;33;20111;-95
2020/12/13 06:18:09;;;;;;;6.05;4.62;;;;;;;;;;4304187;33;20057;-95
2020/12/13 06:20:51;;;;;;;5.53;4.15;;;;;;;;;;4321922;33;20057;-93
2020/12/13 06:23:22;;;;;;;4.50;4.20;;;;;;;;;;4303768;33;20123;-96
2020/12/13 06:25:51;;;;;;;7.62;4.18;;;;;;;;;;4302012;33;20056;-96
2020/12/13 06:28:26;;;;;;;4.87;4.40;;;;;;;;;;4297433;33;20080;-96
2020/12/13 06:31:20;;;;;;;6.22;5.10;;;;;;;;;;4324559;33;20120;-95
2020/12/13 06:33:50;;;;;;;6.97;4.60;;;;;;;;;;4298559;33;20068;-96
2020/12/13 06:36:28;;;;;;;6.60;4.47;;;;;;;;;;4301641;33;20083;-93
2020/12/13 06:38:58;;;;;;;4.25;4.00;;;;;;;;;;4306742;33;20112;-94
2020/12/13 06:41:35;;;;;;;4.62;4.30;;;;;;;;;;4297438;33;20096;-90
2020/12/13 06:44:07;;;;;;;6.75;4.40;;;;;;;;;;4313933;33;20108;-94
2020/12/13 06:46:43;;;;;;;7.55;4.25;;;;;;;;;;4308733;33;20087;-93
2020/12/13 06:49:22;;;;;;;3.90;3.60;;;;;;;;;;4299376;33;20064;-92
2020/12/13 06:52:51;;;;;;;3.33;3.17;;;;;;;;;;4281994;33;20841;-93
2020/12/13 06:55:32;;;;;;;3.90;3.60;;;;;;;;;;4290569;33;20107;-93
2020/12/13 06:58:01;;;;;;;6.25;3.90;;;;;;;;;;4295175;33;20061;-93
2020/12/13 07:00:50;;;;;;;5.32;3.47;;;;;;;;;;4302062;33;20064;-93
2020/12/13 07:03:25;;;;;;;3.53;3.22;;;;;;;;;;4312812;33;20664;-93
2020/12/13 07:06:01;;;;;;;3.50;3.20;;;;;;;;;;4310897;33;20103;-93
2020/12/13 07:08:29;;;;;;;4.80;3.53;;;;;;;;;;4318685;33;20104;-93
2020/12/13 07:11:01;;;;;;;5.78;3.50;;;;;;;;;;4312597;33;20049;-93
2020/12/13 07:13:32;;;;;;;9.93;3.87;;;;;;;;;;4318199;33;20053;-93
2020/12/13 07:16:10;;;;;;;6.78;3.12;;;;;;;;;;4310981;33;20114;-93
2020/12/13 07:18:46;;;;;;;3.58;3.28;;;;;;;;;;4352511;33;20081;-94
2020/12/13 07:21:15;;;;;;;3.95;3.40;;;;;;;;;;4340059;33;20044;-93
2020/12/13 07:23:47;;;;;;;3.55;3.05;;;;;;;;;;4349342;32;20075;-93
2020/12/13 07:26:16;;;;;;;6.25;3.90;;;;;;;;;;4351983;33;20422;-92
2020/12/13 07:28:48;;;;;;;9.13;4.15;;;;;;;;;;4355177;33;20056;-94
2020/12/13 07:31:19;;;;;;;6.43;2.95;;;;;;;;;;4328768;33;20108;-92
2020/12/13 07:33:53;;;;;;;6.28;3.30;;;;;;;;;;4320822;33;20130;-93
2020/12/13 07:36:24;;;;;;;3.70;3.08;;;;;;;;;;4324670;33;20118;-93
2020/12/13 07:38:55;;;;;;;3.95;2.78;;;;;;;;;;4337324;33;20392;-93
2020/12/13 07:41:27;;;;;;;7.00;1.90;;;;;;;;;;4333998;33;20119;-92
2020/12/13 07:44:02;;;;;;;8.30;2.42;;;;;;;;;;4309172;33;20134;-92
2020/12/13 07:46:36;;;;;;;4.15;2.10;;;;;;;;;;4320850;33;20081;-93
2020/12/13 07:49:06;;;;;;;4.70;2.20;;;;;;;;;;4334710;33;20076;-92
2020/12/13 07:51:42;;;;;;;2.72;2.00;;;;;;;;;;4307633;33;20536;-93
2020/12/13 07:54:13;;;;;;;1.62;0.73;;;;;;;;;;4309717;33;20552;-94
2020/12/13 07:56:46;;;;;;;8.35;2.85;;;;;;;;;;4311249;33;20465;-93
2020/12/13 07:59:18;;;;;;;3.62;2.78;;;;;;;;;;4335200;33;20086;-93
2020/12/13 08:01:54;;;;;;;3.70;1.90;;;;;;;;;;4320609;33;20108;-93
2020/12/13 08:04:38;;;;;;;6.43;1.98;;;;;;;;;;4320900;33;20103;-94
2020/12/13 08:07:12;;;;;;;3.45;0.70;;;;;;;;;;4313917;33;20410;-94
2020/12/13 08:09:54;;;;;;;5.55;0.70;;;;;;;;;;4308123;33;20143;-92
2020/12/13 08:12:29;;;;;;;2.85;0.77;;;;;;;;;;4307373;33;20183;-92
2020/12/13 08:15:09;;;;;;;3.40;0.62;;;;;;;;;;4331847;33;20064;-94
2020/12/13 08:17:38;;;;;;;2.67;1.98;;;;;;;;;;4312978;33;20132;-94
2020/12/13 08:20:15;;;;;;;1.40;0.52;;;;;;;;;;4310876;33;20065;-94
2020/12/13 08:22:47;;;;;;;3.78;1.48;;;;;;;;;;4310232;33;20114;-93
2020/12/13 08:25:16;;;;;;;4.93;2.35;;;;;;;;;;4311573;33;20064;-93
2020/12/13 08:27:51;;;;;;;5.85;5.55;;;;;;;;;;4323525;33;20123;-92
2020/12/13 08:30:27;;;;;;;5.78;3.95;;;;;;;;;;4325875;33;20056;-93
2020/12/13 08:32:59;;;;;;;4.72;3.85;;;;;;;;;;4323721;33;20049;-93
2020/12/13 08:35:32;;;;;;;2.25;0.80;;;;;;;;;;4323466;33;20465;-94
2020/12/13 08:38:02;;;;;;;6.62;1.98;;;;;;;;;;4312787;33;20363;-95
2020/12/13 08:40:37;;;;;;;5.53;4.78;;;;;;;;;;4310167;33;20119;-95
2020/12/13 08:43:05;;;;;;;3.03;1.77;;;;;;;;;;4311798;33;20071;-95
2020/12/13 08:45:40;;;;;;;5.45;1.90;;;;;;;;;;4336699;33;20078;-94
2020/12/13 08:48:14;;;;;;;16.25;0.93;;;;;;;;;;4318337;33;20497;-95
2020/12/13 08:50:46;;;;;;;3.42;1.10;;;;;;;;;;4312140;33;20136;-94
2020/12/13 08:53:22;;;;;;;2.78;1.80;;;;;;;;;;4320578;33;20453;-93
2020/12/13 08:56:06;;;;;;;5.82;1.90;;;;;;;;;;4321506;33;20165;-93
2020/12/13 08:58:57;;;;;;;4.20;2.67;;;;;;;;;;4333211;33;20096;-92
2020/12/13 09:01:30;;;;;;;12.50;11.57;;;;;;;;;;4319695;33;20549;-95
2020/12/13 09:04:16;;;;;;;6.15;5.57;;;;;;;;;;4324796;33;20072;-95
2020/12/13 09:06:55;;;;;;;4.15;3.85;;;;;;;;;;4318880;33;20647;-94
2020/12/13 09:09:23;;;;;;;4.90;3.20;;;;;;;;;;4319793;33;20072;-92
2020/12/13 09:12:02;;;;;;;3.08;2.70;;;;;;;;;;4336288;32;20056;-92
2020/12/13 09:14:35;;;;;;;3.53;3.22;;;;;;;;;;4312138;33;20122;-94
2020/12/13 09:17:03;;;;;;;3.50;3.03;;;;;;;;;;4323335;33;20220;-93
2020/12/13 09:19:34;;;;;;;2.67;2.45;;;;;;;;;;4319619;33;20509;-92
2020/12/13 09:22:05;;;;;;;2.75;2.58;;;;;;;;;;4318958;33;20056;-92
2020/12/13 09:24:38;;;;;;;4.93;2.60;;;;;;;;;;4333666;33;20116;-92
2020/12/13 09:27:18;;;;;;;2.60;2.50;;;;;;;;;;4320431;33;20500;-93
2020/12/13 09:29:50;;;;;;;2.53;2.42;;;;;;;;;;4320672;33;20080;-93
2020/12/13 09:32:20;;;;;;;3.37;2.42;;;;;;;;;;4334094;33;20080;-94
2020/12/13 09:34:49;;;;;;;4.15;2.42;;;;;;;;;;4320274;33;20056;-94
2020/12/13 09:37:20;;;;;;;3.00;2.50;;;;;;;;;;4331648;33;20071;-93
2020/12/13 09:39:53;;;;;;;1.95;1.85;;;;;;;;;;4321957;33;20096;-92
2020/12/13 09:42:21;;;;;;;4.78;1.90;;;;;;;;;;4320582;33;20120;-93
2020/12/13 09:44:54;;;;;;;1.65;1.00;;;;;;;;;;4320612;33;20060;-93
2020/12/13 09:47:22;;;;;;;2.97;0.75;;;;;;;;;;4322076;33;20099;-92
2020/12/13 09:49:58;;;;;;;1.60;0.50;;;;;;;;;;4316486;33;20128;-93
2020/12/13 09:52:28;;;;;;;0.95;0.47;;;;;;;;;;4331096;33;20052;-92
2020/12/13 09:54:59;;;;;;;2.97;0.50;;;;;;;;;;4319276;33;20072;-92
2020/12/13 09:57:27;;;;;;;3.55;0.45;;;;;;;;;;4332808;33;20548;-91
2020/12/13 10:00:01;;;;;;;1.92;0.50;;;;;;;;;;4324845;33;20480;-94
2020/12/13 10:02:41;;;;;;;0.68;0.40;;;;;;;;;;4325247;33;20053;-94
2020/12/13 10:05:32;;;;;;;3.50;0.60;;;;;;;;;;4337288;33;20115;-95
2020/12/13 10:10:49;;;;;;;2.22;0.73;;;;;;;;;;4327322;33;20056;-93
2020/12/13 10:13:19;;;;;;;8.43;0.90;;;;;;;;;;4324551;33;20114;-93
2020/12/13 10:15:54;;;;;;;0.95;0.80;;;;;;;;;;4324716;33;20104;-93
2020/12/13 10:18:43;;;;;;;2.05;0.95;;;;;;;;;;4327284;33;20048;-92
2020/12/13 10:21:26;;;;;;;1.63;0.80;;;;;;;;;;4325819;33;20145;-94
2020/12/13 10:23:54;;;;;;;1.73;0.62;;;;;;;;;;4320538;33;20091;-93
2020/12/13 10:26:29;;;;;;;1.60;0.75;;;;;;;;;;4327425;33;20067;-94
2020/12/13 10:28:57;;;;;;;3.28;0.98;;;;;;;;;;4343162;33;20053;-94
2020/12/13 10:31:46;;;;;;;6.82;1.37;;;;;;;;;;4324388;33;20068;-92
2020/12/13 10:34:18;;;;;;;2.35;0.70;;;;;;;;;;4308992;33;20389;-91
2020/12/13 10:36:50;;;;;;;1.42;0.62;;;;;;;;;;4321820;33;21644;-91
2020/12/13 10:39:22;;;;;;;3.95;1.05;;;;;;;;;;4321656;33;20137;-92
2020/12/13 10:41:52;;;;;;;5.60;0.70;;;;;;;;;;4321822;33;20105;-91
2020/12/13 10:44:26;;;;;;;5.10;0.85;;;;;;;;;;4324833;33;20099;-91
2020/12/13 10:47:05;;;;;;;3.37;0.68;;;;;;;;;;4327249;33;20110;-93
2020/12/13 10:49:40;;;;;;;0.60;0.60;;;;;;;;;;4320599;33;20624;-91
2020/12/13 10:52:09;;;;;;;2.33;0.90;;;;;;;;;;4332042;32;20063;-90
2020/12/13 10:54:37;;;;;;;3.70;1.30;;;;;;;;;;4333166;33;20521;-91
2020/12/13 10:57:11;;;;;;;1.40;0.60;;;;;;;;;;4341085;32;20065;-93
2020/12/13 10:59:39;;;;;;;1.23;0.80;;;;;;;;;;4318964;33;20087;-92
2020/12/13 11:02:07;;;;;;;2.47;0.70;;;;;;;;;;4335581;33;20067;-90
2020/12/13 11:04:35;;;;;;;0.73;0.70;;;;;;;;;;4339873;33;20071;-91
2020/12/13 11:07:08;;;;;;;3.42;0.77;;;;;;;;;;4335383;33;20516;-91
2020/12/13 11:09:39;;;;;;;1.52;0.70;;;;;;;;;;4333714;33;20909;-93
2020/12/13 11:12:11;;;;;;;2.40;0.55;;;;;;;;;;4335875;33;20417;-94
2020/12/13 11:14:39;;;;;;;2.10;0.60;;;;;;;;;;4337506;33;20095;-93
2020/12/13 11:17:08;;;;;;;1.52;0.77;;;;;;;;;;4325931;33;20086;-93
2020/12/13 11:19:38;;;;;;;1.27;0.70;;;;;;;;;;4336893;33;20405;-92
2020/12/13 11:22:06;;;;;;;2.78;0.80;;;;;;;;;;4313358;33;20078;-94
2020/12/13 11:24:49;;;;;;;1.55;0.60;;;;;;;;;;4337181;32;20105;-93
2020/12/13 11:27:23;;;;;;;1.00;0.50;;;;;;;;;;4338472;33;20424;-91
2020/12/13 11:29:52;;;;;;;1.25;0.68;;;;;;;;;;4335859;33;20573;-93
2020/12/13 11:32:29;;;;;;;1.73;0.82;;;;;;;;;;4338413;33;20137;-95
2020/12/13 11:35:00;;;;;;;0.98;0.60;;;;;;;;;;4313316;33;20465;-94
2020/12/13 11:37:34;;;;;;;;;;;;;;;;;;4341027;33;20066;-94
2020/12/13 11:40:06;;;;;;;2.85;1.20;;;;;;;;;;4327111;33;20332;-94
2020/12/13 11:42:37;;;;;;;3.10;1.30;;;;;;;;;;4338701;33;20037;-95
2020/12/13 11:45:11;;;;;;;0.85;0.70;;;;;;;;;;4331914;32;20074;-95
2020/12/13 11:47:39;;;;;;;1.98;0.80;;;;;;;;;;4353089;32;20060;-93
2020/12/13 11:50:10;;;;;;;2.28;0.80;;;;;;;;;;4340874;33;20056;-95
2020/12/13 11:55:54;;;;;;;2.55;0.82;;;;;;;;;;4345036;33;20078;-96
2020/12/13 11:58:23;;;;;;;1.75;0.77;;;;;;;;;;4336846;33;20052;-94
2020/12/13 12:01:11;;;;;;;1.95;0.68;;;;;;;;;;4340017;33;20090;-94
2020/12/13 12:03:40;;;;;;;3.72;1.80;;;;;;;;;;4332312;33;20063;-95
2020/12/13 12:06:09;;;;;;;3.62;1.00;;;;;;;;;;4328417;33;20077;-95
2020/12/13 12:08:42;;;;;;;1.27;0.90;;;;;;;;;;4330815;33;20048;-95
2020/12/13 12:11:18;;;;;;;1.33;0.80;;;;;;;;;;4312632;33;20060;-94
2020/12/13 12:13:57;;;;;;;2.05;0.73;;;;;;;;;;4341976;33;21774;-94
2020/12/13 12:16:30;;;;;;;1.70;0.80;;;;;;;;;;4329120;33;20060;-96
2020/12/13 12:19:02;;;;;;;3.83;0.90;;;;;;;;;;4327025;33;20494;-95
2020/12/13 12:21:34;;;;;;;2.45;0.90;;;;;;;;;;4327750;33;20056;-95
2020/12/13 12:24:05;;;;;;;3.15;1.05;;;;;;;;;;4330757;33;20142;-96
2020/12/13 12:26:42;;;;;;;0.98;0.60;;;;;;;;;;4318130;33;20096;-95
2020/12/13 12:29:13;;;;;;;1.37;0.80;;;;;;;;;;4306075;33;20094;-93
2020/12/13 12:31:48;;;;;;;1.98;0.60;;;;;;;;;;4313032;33;20060;-94
2020/12/13 12:34:22;;;;;;;2.53;0.85;;;;;;;;;;4330076;33;20081;-94
2020/12/13 12:36:51;;;;;;;1.75;0.70;;;;;;;;;;4315741;33;20116;-94
2020/12/13 12:39:20;;;;;;;4.07;1.05;;;;;;;;;;4327149;33;20063;-93
2020/12/13 12:41:49;;;;;;;3.17;1.45;;;;;;;;;;4327898;33;20070;-92
2020/12/13 12:44:23;;;;;;;2.80;1.35;;;;;;;;;;4316689;33;20111;-93
2020/12/13 12:46:53;;;;;;;1.33;0.60;;;;;;;;;;4336773;33;20139;-95
2020/12/13 12:49:35;;;;;;;1.50;1.12;;;;;;;;;;4327211;33;20102;-94
2020/12/13 12:52:06;;;;;;;1.50;0.90;;;;;;;;;;4301108;33;20118;-93
2020/12/13 12:54:50;;;;;;;2.30;0.82;;;;;;;;;;4313616;33;20084;-93
2020/12/13 12:57:22;;;;;;;4.40;1.00;;;;;;;;;;4324881;33;20107;-94
2020/12/13 13:02:44;;;;;;;1.35;0.90;;;;;;;;;;4327292;33;20481;-93
2020/12/13 13:05:40;;;;;;;;;;;;;;;;;;4326362;33;20293;-94
2020/12/13 13:08:34;;;;;;;4.10;0.80;;;;;;;;;;4324387;33;20367;-93
2020/12/13 13:11:08;;;;;;;2.62;0.80;;;;;;;;;;4327085;33;20083;-93
2020/12/13 13:13:40;;;;;;;3.12;1.00;;;;;;;;;;4336152;33;20122;-93
2020/12/13 13:16:12;;;;;;;1.58;0.82;;;;;;;;;;4335533;33;20071;-92
2020/12/13 13:18:42;;;;;;;0.65;0.65;;;;;;;;;;4340632;33;20099;-92
2020/12/13 13:21:33;;;;;;;2.03;0.75;;;;;;;;;;4337705;33;20100;-93
2020/12/13 13:24:07;;;;;;;1.83;0.50;;;;;;;;;;4337160;33;20122;-93
2020/12/13 13:26:36;;;;;;;1.10;0.68;;;;;;;;;;4315161;33;20064;-93
2020/12/13 13:29:09;;;;;;;0.82;0.60;;;;;;;;;;4328607;33;20523;-93
2020/12/13 13:31:59;;;;;;;1.37;0.60;;;;;;;;;;4339831;33;20060;-91
2020/12/13 13:34:30;;;;;;;2.00;0.73;;;;;;;;;;4316895;33;20064;-92
2020/12/13 13:37:04;;;;;;;1.20;0.60;;;;;;;;;;4330547;33;20095;-94
2020/12/13 13:39:42;;;;;;;1.02;0.52;;;;;;;;;;4342833;33;20060;-94
2020/12/13 13:42:14;;;;;;;3.83;0.95;;;;;;;;;;4341572;33;20067;-94
2020/12/13 13:45:13;;;;;;;0.85;0.60;;;;;;;;;;4343324;33;20060;-96
2020/12/13 13:50:43;;;;;;;2.33;0.93;;;;;;;;;;4329988;33;20493;-94
2020/12/13 13:53:22;;;;;;;2.60;0.80;;;;;;;;;;4315354;33;20394;-95
2020/12/13 13:56:00;;;;;;;0.85;0.68;;;;;;;;;;4329901;33;20479;-94
2020/12/13 13:58:38;;;;;;;2.12;0.73;;;;;;;;;;4326876;33;20083;-94
2020/12/13 14:01:08;;;;;;;3.42;0.57;;;;;;;;;;4340021;33;20149;-94
2020/12/13 14:03:58;;;;;;;1.60;0.70;;;;;;;;;;4340626;33;20103;-93
2020/12/13 14:07:19;;;;;;;2.58;0.82;;;;;;;;;;4325203;33;20056;-94
2020/12/13 14:09:33;;;;;;;1.50;0.62;;;;;;;;;;4339688;33;20083;-95
2020/12/13 14:12:03;;;;;;;1.40;0.55;;;;;;;;;;4342003;33;20082;-94
2020/12/13 14:14:33;;;;;;;2.47;0.60;;;;;;;;;;4339943;33;20095;-93
2020/12/13 14:17:03;;;;;;;2.83;0.73;;;;;;;;;;4319858;33;20052;-93
2020/12/13 14:19:33;;;;;;;1.67;0.40;;;;;;;;;;4327300;33;20127;-93
2020/12/13 14:22:03;;;;;;;0.65;0.50;;;;;;;;;;4342869;33;20072;-94
2020/12/13 14:24:32;;;;;;;2.15;0.60;;;;;;;;;;4339951;33;20060;-94
2020/12/13 14:27:01;;;;;;;4.03;0.70;;;;;;;;;;4328461;33;20138;-94
2020/12/13 14:29:32;;;;;;;2.37;0.55;;;;;;;;;;4339557;33;20070;-95
2020/12/13 14:32:01;;;;;;;1.75;0.50;;;;;;;;;;4327492;33;20075;-94
2020/12/13 14:34:32;;;;;;;2.70;0.60;;;;;;;;;;4330205;33;20068;-93
2020/12/13 14:37:07;;;;;;;1.90;0.47;;;;;;;;;;4317057;33;20128;-93
2020/12/13 14:39:35;;;;;;;1.37;0.55;;;;;;;;;;4339483;33;20055;-95
2020/12/13 14:42:17;;;;;;;1.95;0.62;;;;;;;;;;4317893;33;20095;-95
2020/12/13 14:44:45;;;;;;;2.50;0.80;;;;;;;;;;4336721;33;20096;-95
2020/12/13 14:47:18;;;;;;;2.78;0.50;;;;;;;;;;4332114;33;20060;-94
2020/12/13 14:49:46;;;;;;;1.05;0.50;;;;;;;;;;4325930;33;20617;-93
2020/12/13 14:52:26;;;;;;;4.50;0.60;;;;;;;;;;4337334;32;20091;-93
2020/12/13 14:54:54;;;;;;;1.05;0.70;;;;;;;;;;4316181;33;20110;-92
2020/12/13 14:57:23;;;;;;;1.60;0.60;;;;;;;;;;4313588;33;20430;-94
2020/12/13 14:59:56;;;;;;;1.42;0.90;;;;;;;;;;4315050;33;20074;-92
2020/12/13 15:02:25;;;;;;;1.58;0.68;;;;;;;;;;4338451;33;20067;-96
2020/12/13 15:04:55;;;;;;;1.98;0.40;;;;;;;;;;4327049;33;20059;-92
2020/12/13 15:07:26;;;;;;;2.72;0.70;;;;;;;;;;4336591;33;20100;-93
2020/12/13 15:09:59;;;;;;;1.47;0.40;;;;;;;;;;4340051;33;20088;-96
2020/12/13 15:12:28;;;;;;;3.25;0.50;;;;;;;;;;4338005;33;20175;-93
2020/12/13 15:15:02;;;;;;;1.58;0.70;;;;;;;;;;4336481;33;20117;-93
2020/12/13 15:17:39;;;;;;;5.18;1.10;;;;;;;;;;4338105;32;20060;-93
2020/12/13 15:20:09;;;;;;;1.67;0.60;;;;;;;;;;4339617;33;20539;-93
2020/12/13 15:22:49;;;;;;;0.40;0.37;;;;;;;;;;4325398;33;20107;-95
2020/12/13 15:25:20;;;;;;;3.12;0.43;;;;;;;;;;4325634;33;20066;-96
2020/12/13 15:27:49;;;;;;;2.75;0.60;;;;;;;;;;4332698;33;20094;-94
2020/12/13 15:30:25;;;;;;;3.03;0.40;;;;;;;;;;4326922;33;20063;-93
2020/12/13 15:32:57;;;;;;;0.50;0.30;;;;;;;;;;4329273;33;20094;-92
2020/12/13 15:35:29;;;;;;;2.60;0.40;;;;;;;;;;4321553;33;20082;-93
2020/12/13 15:38:02;;;;;;;1.55;0.40;;;;;;;;;;4336996;33;20060;-92